Time;durP1;ratioP1;P1;durP2;ratioP2;P2;SDS_P1;SDS_P2;PMS_P1;PMS_P2;Temp;Humidity;BMP_temperature;BMP_pressure;BME280_temperature;BME280_humidity;BME280_pressure;Samples;Min_cycle;Max_cycle;Signal;HPM_P1;HPM_P2
2022/10/30 00:00:55;;;;;;;13.30;8.05;;;15.50;99.90;;;;;;5044161;28;20045;-59
2022/10/30 00:03:20;;;;;;;16.15;7.72;;;15.50;99.90;;;;;;5044690;28;20056;-59
2022/10/30 00:05:48;;;;;;;17.23;8.68;;;15.50;99.90;;;;;;5041995;28;20102;-59
2022/10/30 00:08:18;;;;;;;17.02;8.15;;;15.40;99.90;;;;;;5044997;28;20045;-60
2022/10/30 00:10:44;;;;;;;14.85;7.75;;;15.50;99.90;;;;;;5046357;28;20154;-60
2022/10/30 00:13:10;;;;;;;15.40;8.07;;;15.40;99.90;;;;;;5029108;28;20041;-60
2022/10/30 00:15:36;;;;;;;21.90;8.73;;;15.40;99.90;;;;;;5045652;28;20399;-59
2022/10/30 00:18:02;;;;;;;18.88;8.68;;;15.30;99.90;;;;;;5046794;28;20033;-59
2022/10/30 00:20:28;;;;;;;20.38;8.00;;;15.30;99.90;;;;;;5050883;28;20444;-59
2022/10/30 00:22:53;;;;;;;14.48;8.13;;;15.30;99.90;;;;;;5046254;28;20100;-59
2022/10/30 00:25:19;;;;;;;14.85;8.77;;;15.30;99.90;;;;;;5047301;28;20037;-59
2022/10/30 00:27:45;;;;;;;19.98;8.18;;;15.20;99.90;;;;;;5047995;28;20393;-57
2022/10/30 00:30:11;;;;;;;15.80;8.25;;;15.20;99.90;;;;;;5043809;28;20045;-59
2022/10/30 00:32:36;;;;;;;18.45;8.30;;;15.10;99.90;;;;;;5044661;28;20064;-59
2022/10/30 00:35:02;;;;;;;19.00;8.68;;;15.10;99.90;;;;;;5045705;28;20390;-58
2022/10/30 00:37:28;;;;;;;16.23;8.23;;;15.10;99.90;;;;;;5028925;28;20036;-59
2022/10/30 00:39:53;;;;;;;19.63;8.48;;;15.10;99.90;;;;;;5046259;28;20051;-59
2022/10/30 00:42:19;;;;;;;16.23;8.40;;;15.10;99.90;;;;;;5046240;28;20051;-59
2022/10/30 00:44:47;;;;;;;17.73;8.45;;;15.10;99.90;;;;;;5046423;28;20090;-59
2022/10/30 00:47:33;;;;;;;16.58;8.93;;;15.10;99.90;;;;;;5045717;28;20465;-59
2022/10/30 00:50:04;;;;;;;14.88;8.02;;;15.10;99.90;;;;;;5045328;28;20032;-59
2022/10/30 00:52:36;;;;;;;20.55;9.10;;;15.00;99.90;;;;;;5047757;28;20487;-59
2022/10/30 00:55:09;;;;;;;20.38;8.38;;;15.00;99.90;;;;;;5047213;28;20372;-61
2022/10/30 00:57:37;;;;;;;16.23;8.65;;;15.00;99.90;;;;;;5046092;28;20037;-59
2022/10/30 01:00:05;;;;;;;16.48;8.93;;;14.90;99.90;;;;;;5045636;28;20079;-60
2022/10/30 01:02:31;;;;;;;18.00;8.68;;;14.90;99.90;;;;;;5045198;28;20045;-59
2022/10/30 01:04:57;;;;;;;18.25;8.77;;;14.90;99.90;;;;;;5039506;28;20052;-59
2022/10/30 01:07:22;;;;;;;12.48;8.23;;;14.80;99.90;;;;;;5047342;28;20033;-60
2022/10/30 01:09:48;;;;;;;15.80;8.98;;;14.70;99.90;;;;;;5044195;28;20041;-60
2022/10/30 01:12:15;;;;;;;16.95;8.65;;;14.80;99.90;;;;;;5045841;28;20049;-59
2022/10/30 01:14:46;;;;;;;18.63;8.88;;;14.70;99.90;;;;;;5041852;28;20053;-59
2022/10/30 01:17:33;;;;;;;19.25;9.32;;;14.70;99.90;;;;;;5045867;28;20048;-60
2022/10/30 01:20:21;;;;;;;17.63;8.82;;;14.70;99.90;;;;;;5044034;28;20041;-59
2022/10/30 01:23:08;;;;;;;16.83;8.63;;;14.70;99.90;;;;;;5024105;28;20573;-60
2022/10/30 01:25:37;;;;;;;18.75;8.65;;;14.70;99.90;;;;;;5024926;28;20041;-59
2022/10/30 01:28:21;;;;;;;20.75;8.50;;;;;;;;;;5046593;28;20049;-60
2022/10/30 01:31:20;;;;;;;17.27;8.73;;;14.70;99.90;;;;;;5043089;28;20094;-59
2022/10/30 01:34:08;;;;;;;15.77;9.10;;;14.70;99.90;;;;;;5023517;28;20060;-60
2022/10/30 01:36:56;;;;;;;15.27;8.82;;;14.70;99.90;;;;;;5043210;28;20171;-61
2022/10/30 01:39:27;;;;;;;13.88;8.32;;;14.70;99.90;;;;;;5025305;28;20040;-59
2022/10/30 01:41:53;;;;;;;14.07;8.40;;;14.70;99.90;;;;;;5042779;28;20110;-60
2022/10/30 01:44:22;;;;;;;18.45;9.00;;;14.70;99.90;;;;;;5041342;28;20436;-61
2022/10/30 01:47:02;;;;;;;23.25;9.15;;;14.70;99.90;;;;;;5044648;28;20049;-61
2022/10/30 01:49:58;;;;;;;14.57;8.30;;;14.60;99.90;;;;;;5024855;28;20076;-60
2022/10/30 01:52:54;;;;;;;15.85;8.75;;;14.60;99.90;;;;;;5041959;28;20041;-61
2022/10/30 01:55:48;;;;;;;16.80;8.77;;;14.60;99.90;;;;;;5043716;28;20147;-59
2022/10/30 01:58:21;;;;;;;20.23;9.02;;;14.70;99.90;;;;;;5044849;28;20045;-61
2022/10/30 02:00:52;;;;;;;17.35;8.25;;;14.60;99.90;;;;;;5042699;28;20068;-60
2022/10/30 02:03:18;;;;;;;21.13;9.60;;;14.60;99.90;;;;;;5041914;28;20485;-59
2022/10/30 02:05:49;;;;;;;15.90;7.85;;;14.60;99.90;;;;;;5040952;28;21075;-59
2022/10/30 02:08:15;;;;;;;14.13;8.68;;;14.60;99.90;;;;;;5041559;28;20448;-59
2022/10/30 02:10:44;;;;;;;19.58;8.77;;;14.60;99.90;;;;;;5042342;28;20044;-60
2022/10/30 02:13:09;;;;;;;17.30;8.23;;;14.60;99.90;;;;;;5044711;28;20051;-60
2022/10/30 02:15:36;;;;;;;19.33;8.50;;;14.50;99.90;;;;;;5043109;28;20394;-60
2022/10/30 02:18:02;;;;;;;16.42;8.77;;;14.50;99.90;;;;;;5046801;28;20041;-61
2022/10/30 02:20:28;;;;;;;13.75;8.30;;;14.60;99.90;;;;;;5044967;28;20032;-60
2022/10/30 02:22:54;;;;;;;17.05;8.32;;;14.60;99.90;;;;;;5046129;28;20036;-60
2022/10/30 02:25:20;;;;;;;17.40;8.73;;;14.60;99.90;;;;;;5042406;28;20404;-60
2022/10/30 02:27:45;;;;;;;14.95;8.25;;;14.60;99.90;;;;;;5044982;28;20049;-60
2022/10/30 02:30:12;;;;;;;16.67;8.88;;;14.60;99.90;;;;;;5042617;28;20045;-60
2022/10/30 02:32:37;;;;;;;15.15;8.20;;;14.60;99.90;;;;;;5044060;28;20120;-60
2022/10/30 02:35:04;;;;;;;16.55;8.75;;;14.60;99.90;;;;;;5044732;28;20250;-59
2022/10/30 02:37:31;;;;;;;16.05;8.43;;;14.60;99.90;;;;;;5041668;28;20128;-60
2022/10/30 02:39:57;;;;;;;20.00;9.18;;;14.60;99.90;;;;;;5043265;28;20048;-61
2022/10/30 02:42:23;;;;;;;21.05;9.00;;;14.60;99.90;;;;;;5042087;28;20040;-59
2022/10/30 02:44:49;;;;;;;16.92;8.00;;;14.60;99.90;;;;;;5039072;28;20099;-59
2022/10/30 02:47:14;;;;;;;18.30;8.82;;;14.60;99.90;;;;;;5023198;28;20045;-60
2022/10/30 02:49:40;;;;;;;14.63;9.20;;;14.60;99.90;;;;;;5046053;28;20037;-59
2022/10/30 02:52:07;;;;;;;18.10;9.63;;;14.60;99.90;;;;;;5040930;28;20037;-60
2022/10/30 02:54:34;;;;;;;17.13;8.55;;;14.60;99.90;;;;;;5042137;28;20112;-59
2022/10/30 02:56:59;;;;;;;17.67;8.77;;;14.70;99.90;;;;;;5007600;28;20115;-59
2022/10/30 02:59:25;;;;;;;20.38;8.60;;;14.60;99.90;;;;;;5044834;28;20449;-59
2022/10/30 03:01:50;;;;;;;16.35;9.27;;;14.60;99.90;;;;;;5041984;28;20577;-59
2022/10/30 03:04:16;;;;;;;15.13;8.73;;;14.60;99.90;;;;;;5044054;28;20048;-60
2022/10/30 03:06:42;;;;;;;18.23;8.73;;;14.60;99.90;;;;;;5043260;28;20132;-60
2022/10/30 03:09:07;;;;;;;20.40;8.85;;;14.60;99.90;;;;;;5039745;28;20040;-59
2022/10/30 03:11:33;;;;;;;15.68;8.68;;;14.50;99.90;;;;;;5042986;28;20072;-60
2022/10/30 03:13:59;;;;;;;14.73;8.20;;;14.50;99.90;;;;;;5040562;28;20240;-60
2022/10/30 03:16:28;;;;;;;16.77;9.30;;;14.40;99.90;;;;;;5044960;28;20033;-59
2022/10/30 03:18:54;;;;;;;17.08;9.13;;;14.40;99.90;;;;;;5041678;28;20485;-59
2022/10/30 03:21:22;;;;;;;17.40;8.30;;;14.30;99.90;;;;;;5041631;28;20128;-59
2022/10/30 03:23:49;;;;;;;20.65;9.20;;;14.30;99.90;;;;;;5043645;28;20406;-60
2022/10/30 03:26:16;;;;;;;15.52;9.13;;;14.20;99.90;;;;;;5044351;28;20036;-60
2022/10/30 03:28:42;;;;;;;21.60;9.05;;;;;;;;;;5044805;28;20049;-59
2022/10/30 03:31:13;;;;;;;16.05;8.65;;;14.20;99.90;;;;;;5047957;28;20053;-59
2022/10/30 03:33:39;;;;;;;18.30;9.20;;;14.20;99.90;;;;;;5047237;28;20040;-60
2022/10/30 03:36:07;;;;;;;15.18;9.20;;;14.20;99.90;;;;;;5045799;28;20483;-60
2022/10/30 03:38:33;;;;;;;14.73;9.60;;;14.20;99.90;;;;;;5047756;28;20076;-60
2022/10/30 03:40:58;;;;;;;21.55;9.77;;;14.20;99.90;;;;;;5046936;28;20156;-60
2022/10/30 03:43:24;;;;;;;14.35;8.75;;;14.20;99.90;;;;;;5051977;28;20385;-59
2022/10/30 03:45:52;;;;;;;18.52;9.82;;;14.10;99.90;;;;;;5054408;28;20496;-60
2022/10/30 03:48:19;;;;;;;18.48;9.88;;;14.10;99.90;;;;;;5033809;28;20048;-60
2022/10/30 03:50:46;;;;;;;14.90;9.23;;;14.00;99.90;;;;;;5047123;28;20794;-60
2022/10/30 03:53:12;;;;;;;16.05;9.18;;;14.00;99.90;;;;;;5042433;28;20037;-60
2022/10/30 03:55:40;;;;;;;17.10;8.77;;;14.00;99.90;;;;;;5047464;28;20036;-59
2022/10/30 03:58:07;;;;;;;21.02;9.35;;;14.00;99.90;;;;;;5049752;28;20048;-60
2022/10/30 04:00:34;;;;;;;18.27;9.52;;;14.00;99.90;;;;;;5046586;28;20033;-60
2022/10/30 04:03:00;;;;;;;15.82;9.05;;;;;;;;;;5047428;28;20049;-59
2022/10/30 04:05:27;;;;;;;17.35;9.52;;;13.90;99.90;;;;;;5044332;28;20123;-60
2022/10/30 04:08:06;;;;;;;19.58;9.57;;;13.90;99.90;;;;;;5047618;28;20045;-60
2022/10/30 04:10:33;;;;;;;21.27;9.95;;;13.80;99.90;;;;;;5044949;28;20056;-60
2022/10/30 04:13:00;;;;;;;15.07;8.83;;;13.80;99.90;;;;;;5046138;28;20402;-60
2022/10/30 04:15:25;;;;;;;18.63;10.10;;;13.80;99.90;;;;;;5043391;28;20535;-58
2022/10/30 04:17:51;;;;;;;17.17;9.98;;;13.80;99.90;;;;;;5044256;28;20041;-59
2022/10/30 04:20:18;;;;;;;18.77;9.75;;;13.70;99.90;;;;;;5047065;28;20033;-60
2022/10/30 04:22:44;;;;;;;18.90;10.40;;;13.70;99.90;;;;;;5044287;28;20131;-60
2022/10/30 04:25:10;;;;;;;18.90;9.30;;;13.60;99.90;;;;;;5045667;28;20116;-59
2022/10/30 04:27:43;;;;;;;21.20;10.30;;;13.60;99.90;;;;;;5047812;28;20581;-60
2022/10/30 04:30:11;;;;;;;16.17;9.15;;;13.60;99.90;;;;;;5044363;28;20735;-60
2022/10/30 04:32:46;;;;;;;22.63;10.27;;;13.60;99.90;;;;;;5047057;28;20076;-61
2022/10/30 04:35:12;;;;;;;16.98;9.57;;;13.60;99.90;;;;;;5046734;28;20037;-60
2022/10/30 04:37:38;;;;;;;17.20;9.68;;;13.60;99.90;;;;;;5046218;28;20082;-61
2022/10/30 04:40:04;;;;;;;16.65;10.25;;;13.50;99.90;;;;;;5027807;28;20049;-60
2022/10/30 04:42:30;;;;;;;16.65;10.38;;;13.50;99.90;;;;;;5046712;28;20037;-60
2022/10/30 04:44:55;;;;;;;18.23;9.63;;;13.50;99.90;;;;;;5043637;28;20052;-60
2022/10/30 04:47:21;;;;;;;26.58;10.35;;;13.50;99.90;;;;;;5051077;28;20036;-59
2022/10/30 04:49:47;;;;;;;22.55;10.75;;;13.50;99.90;;;;;;5048392;28;20037;-60
2022/10/30 04:52:12;;;;;;;21.35;10.10;;;13.40;99.90;;;;;;5019316;28;20045;-60
2022/10/30 04:54:38;;;;;;;17.15;9.80;;;13.40;99.90;;;;;;5052790;28;20041;-60
2022/10/30 04:57:04;;;;;;;15.65;9.82;;;13.40;99.90;;;;;;5055575;28;20076;-60
2022/10/30 04:59:30;;;;;;;20.63;10.15;;;13.40;99.90;;;;;;5052528;28;20048;-61
2022/10/30 05:01:55;;;;;;;20.92;9.82;;;13.30;99.90;;;;;;5054350;28;20052;-60
2022/10/30 05:04:21;;;;;;;20.30;10.93;;;13.40;99.90;;;;;;5051875;28;20041;-60
2022/10/30 05:06:47;;;;;;;21.17;10.07;;;13.30;99.90;;;;;;5054561;28;20037;-60
2022/10/30 05:09:12;;;;;;;16.65;10.18;;;13.30;99.90;;;;;;5053946;28;20073;-59
2022/10/30 05:11:38;;;;;;;19.77;10.48;;;13.30;99.90;;;;;;5053682;28;20124;-59
2022/10/30 05:14:03;;;;;;;18.08;10.90;;;13.30;99.90;;;;;;5053737;28;20037;-60
2022/10/30 05:16:29;;;;;;;20.90;11.20;;;13.20;99.90;;;;;;5052031;28;20308;-59
2022/10/30 05:18:55;;;;;;;16.50;10.38;;;13.20;99.90;;;;;;5034159;28;20116;-59
2022/10/30 05:21:20;;;;;;;26.20;11.30;;;13.10;99.90;;;;;;5033661;28;20107;-58
2022/10/30 05:23:46;;;;;;;17.88;10.65;;;13.10;99.90;;;;;;5050766;28;20043;-59
2022/10/30 05:26:11;;;;;;;18.20;11.10;;;13.10;99.90;;;;;;5053939;28;20037;-59
2022/10/30 05:28:37;;;;;;;21.60;11.18;;;13.10;99.90;;;;;;5046061;28;20433;-59
2022/10/30 05:31:03;;;;;;;16.63;9.77;;;13.00;99.90;;;;;;5047673;28;20446;-58
2022/10/30 05:33:28;;;;;;;20.58;10.23;;;13.00;99.90;;;;;;5045335;28;20140;-60
2022/10/30 05:35:54;;;;;;;18.20;10.85;;;13.10;99.90;;;;;;5048026;28;20397;-60
2022/10/30 05:38:19;;;;;;;19.33;11.65;;;13.00;99.90;;;;;;5046322;28;20509;-60
2022/10/30 05:40:45;;;;;;;22.92;11.18;;;13.00;99.90;;;;;;5045761;28;20402;-59
2022/10/30 05:43:11;;;;;;;20.58;11.05;;;13.00;99.90;;;;;;5044804;28;20052;-60
2022/10/30 05:45:37;;;;;;;17.52;11.60;;;13.00;99.90;;;;;;5025436;28;20053;-60
2022/10/30 05:48:05;;;;;;;22.30;11.48;;;13.10;99.90;;;;;;5044888;28;20630;-59
2022/10/30 05:50:31;;;;;;;19.15;10.38;;;13.10;99.90;;;;;;5042661;28;20048;-58
2022/10/30 05:53:03;;;;;;;19.58;11.88;;;13.00;99.90;;;;;;5044257;28;20076;-59
2022/10/30 05:55:29;;;;;;;19.85;11.57;;;12.90;99.90;;;;;;5044489;28;20413;-59
2022/10/30 05:57:59;;;;;;;20.30;12.15;;;12.90;99.90;;;;;;5045844;28;20644;-59
2022/10/30 06:00:27;;;;;;;21.95;11.45;;;12.90;99.90;;;;;;5028938;28;20129;-58
2022/10/30 06:02:59;;;;;;;22.90;12.70;;;12.90;99.90;;;;;;5044451;28;20075;-59
2022/10/30 06:05:24;;;;;;;16.77;11.00;;;12.90;99.90;;;;;;5046581;28;20044;-60
2022/10/30 06:07:55;;;;;;;18.23;11.73;;;12.90;99.90;;;;;;5045341;28;20043;-61
2022/10/30 06:10:21;;;;;;;20.15;11.90;;;12.90;99.90;;;;;;5046161;28;20041;-61
2022/10/30 06:13:01;;;;;;;17.95;11.57;;;12.90;99.90;;;;;;5044772;28;20040;-60
2022/10/30 06:15:28;;;;;;;19.73;12.43;;;12.90;99.90;;;;;;5045313;28;20037;-61
2022/10/30 06:17:54;;;;;;;22.58;12.50;;;12.90;99.90;;;;;;5044266;28;20041;-61
2022/10/30 06:20:21;;;;;;;21.27;11.85;;;12.90;99.90;;;;;;5045762;28;20520;-61
2022/10/30 06:22:53;;;;;;;25.35;12.57;;;12.90;99.90;;;;;;5043604;28;20124;-60
2022/10/30 06:25:19;;;;;;;17.60;12.43;;;12.90;99.90;;;;;;5045496;28;20041;-60
2022/10/30 06:27:45;;;;;;;21.98;11.65;;;12.90;99.90;;;;;;5048237;28;20099;-61
2022/10/30 06:30:10;;;;;;;20.30;11.27;;;13.00;99.90;;;;;;5027816;28;20056;-60
2022/10/30 06:32:36;;;;;;;24.77;12.65;;;13.00;99.90;;;;;;5042481;28;20048;-61
2022/10/30 06:35:02;;;;;;;24.83;12.10;;;13.00;99.90;;;;;;5044827;28;20094;-60
2022/10/30 06:37:29;;;;;;;21.52;11.40;;;13.00;99.90;;;;;;5046684;28;20071;-61
2022/10/30 06:39:54;;;;;;;22.80;12.65;;;13.10;99.90;;;;;;5043858;28;20079;-61
2022/10/30 06:42:20;;;;;;;17.88;12.43;;;13.10;99.90;;;;;;5044034;28;20486;-61
2022/10/30 06:44:47;;;;;;;17.20;11.02;;;13.10;99.90;;;;;;5044102;28;20041;-61
2022/10/30 06:47:13;;;;;;;21.20;12.48;;;13.20;99.90;;;;;;5043323;28;20124;-61
2022/10/30 06:49:39;;;;;;;25.92;12.38;;;13.20;99.90;;;;;;5041662;28;20048;-61
2022/10/30 06:52:05;;;;;;;18.02;12.07;;;13.20;99.90;;;;;;5043456;28;20562;-61
2022/10/30 06:54:30;;;;;;;20.52;11.93;;;13.30;99.90;;;;;;5041142;28;20040;-61
2022/10/30 06:56:56;;;;;;;19.05;11.43;;;13.30;99.90;;;;;;5045734;28;20141;-61
2022/10/30 06:59:22;;;;;;;18.63;11.70;;;13.30;99.90;;;;;;5023882;28;20075;-61
2022/10/30 07:01:47;;;;;;;22.88;11.85;;;13.20;99.90;;;;;;5044051;28;20090;-60
2022/10/30 07:04:13;;;;;;;22.30;12.48;;;13.30;99.90;;;;;;5044961;28;20037;-61
2022/10/30 07:06:38;;;;;;;23.67;12.30;;;13.30;99.90;;;;;;5044034;28;21476;-61
2022/10/30 07:09:04;;;;;;;20.58;12.38;;;13.30;99.90;;;;;;5028931;28;20037;-61
2022/10/30 07:11:30;;;;;;;24.80;13.20;;;13.30;99.90;;;;;;5045699;28;20041;-61
2022/10/30 07:13:55;;;;;;;19.98;12.68;;;13.40;99.90;;;;;;5046428;28;20047;-60
2022/10/30 07:16:21;;;;;;;20.60;12.73;;;13.50;99.90;;;;;;5011656;28;20041;-62
2022/10/30 07:18:46;;;;;;;22.40;13.63;;;13.50;99.90;;;;;;5042215;28;20099;-61
2022/10/30 07:21:12;;;;;;;19.65;12.48;;;13.60;99.90;;;;;;5044251;28;20060;-61
2022/10/30 07:23:38;;;;;;;22.90;12.45;;;13.60;99.90;;;;;;5048673;28;20485;-61
2022/10/30 07:26:03;;;;;;;19.40;11.93;;;13.70;99.90;;;;;;5044821;28;20079;-61
2022/10/30 07:28:30;;;;;;;21.67;11.98;;;13.70;99.90;;;;;;5026494;28;20463;-62
2022/10/30 07:30:57;;;;;;;20.60;12.38;;;13.70;99.90;;;;;;5046898;28;20049;-61
2022/10/30 07:33:23;;;;;;;22.67;12.02;;;13.80;99.90;;;;;;5047266;28;20124;-61
2022/10/30 07:35:48;;;;;;;19.45;13.52;;;13.90;99.90;;;;;;5047652;28;20124;-61
2022/10/30 07:38:14;;;;;;;20.90;12.65;;;13.90;99.90;;;;;;5047505;28;20124;-60
2022/10/30 07:40:40;;;;;;;20.45;13.68;;;14.00;99.90;;;;;;5046907;28;20041;-58
2022/10/30 07:43:05;;;;;;;19.65;12.65;;;14.10;99.90;;;;;;5047984;28;20486;-60
2022/10/30 07:45:31;;;;;;;22.73;12.77;;;14.10;99.90;;;;;;5045625;28;20033;-61
2022/10/30 07:47:57;;;;;;;22.90;12.18;;;14.20;99.90;;;;;;5044230;28;20406;-60
2022/10/30 07:50:23;;;;;;;19.48;12.65;;;14.20;99.90;;;;;;5045729;28;20040;-59
2022/10/30 07:52:49;;;;;;;20.52;12.52;;;14.30;99.90;;;;;;5032591;28;20045;-60
2022/10/30 07:55:14;;;;;;;23.52;13.13;;;14.40;99.90;;;;;;5048231;28;20033;-60
2022/10/30 07:57:41;;;;;;;22.25;12.60;;;14.50;99.90;;;;;;5048749;28;20033;-61
2022/10/30 08:00:10;;;;;;;18.27;12.57;;;14.50;99.90;;;;;;5048057;28;20093;-60
2022/10/30 08:02:35;;;;;;;23.38;12.70;;;14.50;99.90;;;;;;5044672;28;20093;-61
2022/10/30 08:05:02;;;;;;;19.13;12.60;;;14.60;99.90;;;;;;5009416;28;20058;-60
2022/10/30 08:07:29;;;;;;;19.88;12.70;;;14.60;99.90;;;;;;5043176;28;20040;-60
2022/10/30 08:09:55;;;;;;;23.02;12.88;;;14.70;99.90;;;;;;5023544;28;20584;-60
2022/10/30 08:12:21;;;;;;;23.60;13.65;;;14.70;99.90;;;;;;5048774;28;20163;-61
2022/10/30 08:14:46;;;;;;;24.98;13.23;;;14.70;99.90;;;;;;5047495;28;20039;-61
2022/10/30 08:17:12;;;;;;;19.15;14.13;;;14.80;99.90;;;;;;5045143;28;20371;-60
2022/10/30 08:19:37;;;;;;;19.00;13.15;;;14.90;99.90;;;;;;5045256;28;20128;-61
2022/10/30 08:22:03;;;;;;;21.25;13.48;;;15.00;99.90;;;;;;5026820;28;20045;-61
2022/10/30 08:24:28;;;;;;;19.23;13.48;;;15.10;99.90;;;;;;5012440;28;20175;-61
2022/10/30 08:26:54;;;;;;;24.83;12.93;;;15.20;99.90;;;;;;5049124;28;20087;-61
2022/10/30 08:29:20;;;;;;;21.30;13.13;;;15.20;99.90;;;;;;5043532;28;20068;-62
2022/10/30 08:31:49;;;;;;;18.13;12.57;;;15.30;99.90;;;;;;5045530;28;20041;-60
2022/10/30 08:34:15;;;;;;;24.85;12.80;;;15.40;99.90;;;;;;5044501;28;20048;-62
2022/10/30 08:36:40;;;;;;;22.80;13.48;;;15.40;99.90;;;;;;5042231;28;20040;-62
2022/10/30 08:39:06;;;;;;;25.25;13.38;;;15.50;99.90;;;;;;5047322;28;20077;-62
2022/10/30 08:41:32;;;;;;;26.08;13.68;;;15.50;99.90;;;;;;5006915;28;20048;-62
2022/10/30 08:43:57;;;;;;;18.17;12.68;;;15.50;99.90;;;;;;5052293;28;20045;-62
2022/10/30 08:46:23;;;;;;;21.95;13.18;;;15.50;99.90;;;;;;5046541;28;20045;-60
2022/10/30 08:48:48;;;;;;;18.98;13.85;;;15.60;99.90;;;;;;5046309;28;20037;-61
2022/10/30 08:51:14;;;;;;;23.05;14.50;;;15.60;99.90;;;;;;5051983;28;20041;-61
2022/10/30 08:53:39;;;;;;;18.13;13.57;;;15.60;99.90;;;;;;5046272;28;20625;-61
2022/10/30 08:56:05;;;;;;;21.10;13.85;;;15.70;99.90;;;;;;5044746;28;20036;-58
2022/10/30 08:58:31;;;;;;;20.05;12.80;;;15.70;99.90;;;;;;5045045;28;20037;-61
2022/10/30 09:00:56;;;;;;;23.17;13.82;;;15.70;99.90;;;;;;5038009;28;20591;-61
2022/10/30 09:03:22;;;;;;;21.52;13.32;;;15.70;99.90;;;;;;5043644;28;20083;-60
2022/10/30 09:05:48;;;;;;;18.17;13.48;;;15.80;99.90;;;;;;5040599;28;20080;-61
2022/10/30 09:08:14;;;;;;;25.52;13.20;;;15.80;99.90;;;;;;5044164;28;20123;-61
2022/10/30 09:10:40;;;;;;;19.60;13.73;;;15.90;99.90;;;;;;5047791;28;20040;-61
2022/10/30 09:13:06;;;;;;;23.55;14.20;;;16.00;99.90;;;;;;5049787;28;20039;-61
2022/10/30 09:15:32;;;;;;;26.17;14.40;;;16.00;99.90;;;;;;5044484;28;20049;-62
2022/10/30 09:18:02;;;;;;;24.50;13.73;;;16.10;99.90;;;;;;5051882;28;20049;-59
2022/10/30 09:20:29;;;;;;;21.27;14.82;;;16.10;99.90;;;;;;5040792;28;20048;-60
2022/10/30 09:22:54;;;;;;;19.90;13.23;;;16.20;99.90;;;;;;5046405;28;20398;-60
2022/10/30 09:25:20;;;;;;;25.13;14.00;;;16.30;99.90;;;;;;5045305;28;20532;-61
2022/10/30 09:27:46;;;;;;;20.58;13.52;;;16.30;99.90;;;;;;5051695;28;20045;-60
2022/10/30 09:30:12;;;;;;;27.25;13.95;;;16.40;99.90;;;;;;5032560;28;20041;-61
2022/10/30 09:32:38;;;;;;;19.23;13.25;;;16.40;99.90;;;;;;5030705;28;20041;-61
2022/10/30 09:35:04;;;;;;;19.95;13.68;;;16.40;99.90;;;;;;5028961;28;20029;-62
2022/10/30 09:37:36;;;;;;;22.05;13.25;;;16.50;99.90;;;;;;5046589;28;20068;-60
2022/10/30 09:40:03;;;;;;;21.67;13.20;;;16.60;99.90;;;;;;5043407;28;20429;-60
2022/10/30 09:42:44;;;;;;;23.25;14.00;;;16.60;99.90;;;;;;5047346;28;20053;-60
2022/10/30 09:45:45;;;;;;;23.42;13.95;;;16.70;99.90;;;;;;5047231;28;20500;-60
2022/10/30 09:48:53;;;;;;;21.85;13.02;;;16.80;99.90;;;;;;5083081;27;20414;-60
2022/10/30 09:51:49;;;;;;;22.30;14.07;;;17.10;99.90;;;;;;5075607;28;20042;-61
2022/10/30 09:54:35;;;;;;;24.05;13.30;;;17.10;99.90;;;;;;5078260;28;20056;-61
2022/10/30 09:57:27;;;;;;;23.40;13.75;;;17.20;99.90;;;;;;5078107;28;20074;-61
2022/10/30 10:00:06;;;;;;;20.95;13.60;;;17.30;99.90;;;;;;5073714;28;20048;-62
2022/10/30 10:02:37;;;;;;;21.30;14.10;;;17.40;99.90;;;;;;5077443;28;20036;-61
2022/10/30 10:05:13;;;;;;;26.83;14.68;;;17.40;99.90;;;;;;5080045;28;20056;-60
2022/10/30 10:07:44;;;;;;;24.30;13.88;;;17.40;99.90;;;;;;5073445;28;20045;-61
2022/10/30 10:10:24;;;;;;;22.42;13.93;;;17.40;99.90;;;;;;5074449;28;20048;-60
2022/10/30 10:12:52;;;;;;;21.70;13.88;;;17.50;99.90;;;;;;5075212;28;20073;-60
2022/10/30 10:15:47;;;;;;;21.65;14.98;;;17.50;99.90;;;;;;5079402;28;20086;-61
2022/10/30 10:18:25;;;;;;;21.95;13.73;;;17.50;99.90;;;;;;5078336;28;20090;-59
2022/10/30 10:20:56;;;;;;;20.98;13.07;;;17.60;99.90;;;;;;5081064;28;20087;-60
2022/10/30 10:23:47;;;;;;;20.73;13.32;;;17.60;99.90;;;;;;5081512;28;20086;-59
2022/10/30 10:26:30;;;;;;;20.83;13.77;;;17.80;99.90;;;;;;5079954;28;20052;-60
2022/10/30 10:29:08;;;;;;;22.73;14.13;;;17.80;99.90;;;;;;5081415;28;20477;-60
2022/10/30 10:32:07;;;;;;;19.00;13.68;;;18.00;99.90;;;;;;5076231;28;20055;-57
2022/10/30 10:34:52;;;;;;;20.77;13.52;;;18.10;99.90;;;;;;5061005;28;20113;-58
2022/10/30 10:37:25;;;;;;;21.02;13.88;;;18.10;99.90;;;;;;5077093;28;20050;-57
2022/10/30 10:40:34;;;;;;;24.58;15.07;;;18.20;99.90;;;;;;5070397;28;20137;-58
2022/10/30 10:43:12;;;;;;;23.48;14.55;;;18.30;99.90;;;;;;5077707;28;20048;-58
2022/10/30 10:46:25;;;;;;;21.42;14.02;;;18.40;99.90;;;;;;5074548;28;20085;-58
2022/10/30 10:49:29;;;;;;;23.60;14.50;;;18.60;99.90;;;;;;5074219;28;20494;-61
2022/10/30 10:52:01;;;;;;;19.70;13.07;;;18.50;99.90;;;;;;5080905;28;20036;-59
2022/10/30 10:54:35;;;;;;;19.27;13.68;;;18.60;99.90;;;;;;5082542;28;20127;-59
2022/10/30 10:57:05;;;;;;;19.75;13.95;;;18.70;99.90;;;;;;5085639;28;20086;-59
2022/10/30 10:59:37;;;;;;;22.35;13.90;;;18.90;99.90;;;;;;5071231;28;20078;-59
2022/10/30 11:02:30;;;;;;;23.65;13.00;;;18.80;99.90;;;;;;5068207;28;20044;-60
2022/10/30 11:05:05;;;;;;;20.88;13.82;;;18.90;99.90;;;;;;5070051;28;20037;-60
2022/10/30 11:07:44;;;;;;;24.50;14.30;;;18.90;99.90;;;;;;5071804;28;20069;-59
2022/10/30 11:10:15;;;;;;;21.50;13.80;;;19.10;99.90;;;;;;5064955;28;20523;-60
2022/10/30 11:12:41;;;;;;;22.42;14.20;;;19.10;99.90;;;;;;5065350;28;20067;-60
2022/10/30 11:15:22;;;;;;;18.63;13.35;;;19.20;99.90;;;;;;5068576;28;20045;-60
2022/10/30 11:18:20;;;;;;;18.73;12.63;;;19.20;99.90;;;;;;5060433;28;20048;-61
2022/10/30 11:21:03;;;;;;;24.90;13.20;;;19.30;99.90;;;;;;5043229;28;20485;-61
2022/10/30 11:23:44;;;;;;;24.45;14.05;;;19.40;99.90;;;;;;5063538;28;20052;-60
2022/10/30 11:26:21;;;;;;;23.00;13.32;;;19.50;99.90;;;;;;5063263;28;20060;-60
2022/10/30 11:28:53;;;;;;;19.58;13.00;;;19.50;99.90;;;;;;5058532;28;20040;-60
2022/10/30 11:31:39;;;;;;;19.05;13.68;;;19.70;99.90;;;;;;5057922;28;20138;-60
2022/10/30 11:34:17;;;;;;;21.60;14.27;;;19.60;99.90;;;;;;5060438;28;20049;-60
2022/10/30 11:36:48;;;;;;;20.00;13.40;;;19.80;99.90;;;;;;5059309;28;20048;-60
2022/10/30 11:39:24;;;;;;;22.63;14.45;;;19.80;99.90;;;;;;5058930;28;20048;-60
2022/10/30 11:42:14;;;;;;;22.35;13.35;;;19.80;99.90;;;;;;5058548;28;20419;-61
2022/10/30 11:44:48;;;;;;;20.23;13.38;;;19.90;99.90;;;;;;5063779;28;20436;-60
2022/10/30 11:47:15;;;;;;;20.50;13.68;;;20.10;99.90;;;;;;5060582;28;20056;-60
2022/10/30 11:49:52;;;;;;;21.50;13.25;;;20.00;99.90;;;;;;5060665;28;20044;-59
2022/10/30 11:52:21;;;;;;;24.10;13.20;;;20.10;99.90;;;;;;5060932;28;20139;-60
2022/10/30 11:54:56;;;;;;;20.95;13.40;;;20.20;99.90;;;;;;5062281;28;20044;-61
2022/10/30 11:57:43;;;;;;;22.27;13.10;;;20.10;99.90;;;;;;5060802;28;20784;-60
2022/10/30 12:00:19;;;;;;;19.15;13.25;;;20.20;99.90;;;;;;5060393;28;20052;-59
2022/10/30 12:02:48;;;;;;;27.63;14.02;;;20.20;99.90;;;;;;5060161;28;21261;-60
2022/10/30 12:05:41;;;;;;;22.92;13.15;;;20.20;99.90;;;;;;5062479;28;20127;-60
2022/10/30 12:08:06;;;;;;;22.17;12.57;;;20.30;99.90;;;;;;5059335;28;20040;-61
2022/10/30 12:10:37;;;;;;;22.05;13.02;;;20.40;99.90;;;;;;5059920;28;20519;-60
2022/10/30 12:13:04;;;;;;;28.05;12.55;;;20.40;99.90;;;;;;5058600;28;20445;-60
2022/10/30 12:15:36;;;;;;;18.30;12.87;;;20.50;99.90;;;;;;5058660;28;20044;-60
2022/10/30 12:18:04;;;;;;;14.13;11.57;;;20.50;99.90;;;;;;5059171;28;20856;-60
2022/10/30 12:20:31;;;;;;;19.67;11.13;;;20.50;99.90;;;;;;5060047;28;20563;-58
2022/10/30 12:22:57;;;;;;;19.58;11.93;;;20.40;99.90;;;;;;5061425;28;20393;-59
2022/10/30 12:25:28;;;;;;;23.00;12.43;;;20.40;99.90;;;;;;5059053;28;20052;-59
2022/10/30 12:28:05;;;;;;;18.55;11.32;;;20.50;99.90;;;;;;5063423;28;20040;-58
2022/10/30 12:30:42;;;;;;;19.52;11.57;;;20.40;99.90;;;;;;5061446;28;20458;-59
2022/10/30 12:33:11;;;;;;;16.27;11.68;;;20.40;99.90;;;;;;5061517;28;20697;-58
2022/10/30 12:35:58;;;;;;;19.38;11.63;;;20.40;99.90;;;;;;5062873;28;20033;-58
2022/10/30 12:38:32;;;;;;;16.23;11.73;;;20.20;99.90;;;;;;5057499;28;20043;-59
2022/10/30 12:41:17;;;;;;;22.45;11.98;;;20.20;99.90;;;;;;5060251;28;20497;-58
2022/10/30 12:43:53;;;;;;;19.60;12.07;;;20.10;99.90;;;;;;5058989;28;20044;-58
2022/10/30 12:46:33;;;;;;;22.45;11.77;;;20.10;99.90;;;;;;5062795;28;20592;-60